createdAt,value
2022-11-26T00:02:23.412Z,24.40
2022-11-26T00:04:52.557Z,26.07
2022-11-26T00:07:26.011Z,25.43
2022-11-26T00:09:54.722Z,23.03
2022-11-26T00:12:26.059Z,23.63
2022-11-26T00:14:54.667Z,23.90
2022-11-26T00:17:23.080Z,23.27
2022-11-26T00:19:51.287Z,23.37
2022-11-26T00:22:25.510Z,23.93
2022-11-26T00:24:54.508Z,24.47
2022-11-26T00:27:26.001Z,25.00
2022-11-26T00:29:54.713Z,23.50
2022-11-26T00:32:25.437Z,22.80
2022-11-26T00:34:54.709Z,22.57
2022-11-26T00:37:29.174Z,22.63
2022-11-26T00:39:58.292Z,22.00
2022-11-26T00:42:26.568Z,22.47
2022-11-26T00:44:54.612Z,24.20
2022-11-26T00:47:22.749Z,22.53
2022-11-26T00:49:50.824Z,21.77
2022-11-26T00:52:34.056Z,21.60
2022-11-26T00:55:07.372Z,20.30
2022-11-26T00:57:36.069Z,22.60
2022-11-26T01:00:07.887Z,20.93
2022-11-26T01:02:35.990Z,22.27
2022-11-26T01:05:04.204Z,22.10
2022-11-26T01:07:33.616Z,23.20
2022-11-26T01:10:01.802Z,21.43
2022-11-26T01:12:29.801Z,20.83
2022-11-26T01:14:58.186Z,22.47
2022-11-26T01:17:26.282Z,22.10
2022-11-26T01:19:54.347Z,22.37
2022-11-26T01:22:24.712Z,22.17
2022-11-26T01:24:54.244Z,22.83
2022-11-26T01:27:22.687Z,21.30
2022-11-26T01:29:50.748Z,21.90
2022-11-26T01:32:18.813Z,21.33
2022-11-26T01:34:46.933Z,20.80
2022-11-26T01:37:15.358Z,21.50
2022-11-26T01:39:43.456Z,22.93
2022-11-26T01:42:23.939Z,20.57
2022-11-26T01:44:52.042Z,20.40
2022-11-26T01:47:23.600Z,21.77
2022-11-26T01:50:28.734Z,21.50
2022-11-26T01:53:00.564Z,21.37
2022-11-26T01:55:33.249Z,21.37
2022-11-26T01:58:03.405Z,21.63
2022-11-26T02:00:31.591Z,23.00
2022-11-26T02:03:00.094Z,21.83
2022-11-26T02:05:31.069Z,21.40
2022-11-26T02:07:59.289Z,22.90
2022-11-26T02:10:27.321Z,21.20
2022-11-26T02:12:55.444Z,22.53
2022-11-26T02:15:28.813Z,21.87
2022-11-26T02:18:01.855Z,21.63
2022-11-26T02:20:46.500Z,22.37
2022-11-26T02:23:49.819Z,22.40
2022-11-26T02:26:49.451Z,20.27
2022-11-26T02:29:24.754Z,21.60
2022-11-26T02:31:59.197Z,22.00
2022-11-26T02:34:37.796Z,23.60
2022-11-26T02:37:11.594Z,23.27
2022-11-26T02:39:39.787Z,21.60
2022-11-26T02:42:24.743Z,22.13
2022-11-26T02:44:54.878Z,22.80
2022-11-26T02:47:27.309Z,24.13
2022-11-26T02:49:58.313Z,22.47
2022-11-26T02:52:27.293Z,23.27
2022-11-26T02:54:56.313Z,23.00
2022-11-26T02:57:28.591Z,24.33
2022-11-26T02:59:57.334Z,24.93
2022-11-26T03:02:31.356Z,23.23
2022-11-26T03:05:02.678Z,23.87
2022-11-26T03:07:32.146Z,23.47
2022-11-26T03:10:01.981Z,22.57
2022-11-26T03:12:30.522Z,23.73
2022-11-26T03:14:58.583Z,22.33
2022-11-26T03:17:28.099Z,23.37
2022-11-26T03:19:56.160Z,22.17
2022-11-26T03:22:24.231Z,23.80
2022-11-26T03:24:52.325Z,24.17
2022-11-26T03:27:20.414Z,23.83
2022-11-26T03:29:48.466Z,22.97
2022-11-26T03:32:16.576Z,23.17
2022-11-26T03:34:47.115Z,23.40
2022-11-26T03:37:15.770Z,24.57
2022-11-26T03:39:43.877Z,24.07
2022-11-26T03:42:12.092Z,23.50
2022-11-26T03:44:40.519Z,25.07
2022-11-26T03:47:08.857Z,25.03
2022-11-26T03:49:36.965Z,25.07
2022-11-26T03:52:06.659Z,25.97
2022-11-26T03:54:34.817Z,24.53
2022-11-26T03:57:03.077Z,25.63
2022-11-26T03:59:31.268Z,25.37
2022-11-26T04:01:59.447Z,27.03
2022-11-26T04:04:27.574Z,25.90
2022-11-26T04:06:55.642Z,26.17
2022-11-26T04:09:25.092Z,27.43
2022-11-26T04:11:53.132Z,25.90
2022-11-26T04:14:21.215Z,24.40
2022-11-26T04:16:49.336Z,25.50
2022-11-26T04:19:17.464Z,24.70
2022-11-26T04:21:45.488Z,30.87
2022-11-26T04:24:16.184Z,27.20
2022-11-26T04:26:45.776Z,28.33
2022-11-26T04:29:13.790Z,25.53
2022-11-26T04:31:42.006Z,26.60
2022-11-26T04:34:10.069Z,27.60
2022-11-26T04:36:39.307Z,26.53
2022-11-26T04:39:07.644Z,27.67
2022-11-26T04:41:35.815Z,29.00
2022-11-26T04:44:05.547Z,29.23
2022-11-26T04:46:33.564Z,29.33
2022-11-26T04:49:01.832Z,33.60
2022-11-26T04:51:30.006Z,30.77
2022-11-26T04:54:02.576Z,29.83
2022-11-26T04:56:31.126Z,30.83
2022-11-26T04:58:59.224Z,31.30
2022-11-26T05:01:28.773Z,31.67
2022-11-26T05:03:56.920Z,34.33
2022-11-26T05:06:24.962Z,33.13
2022-11-26T05:08:53.000Z,32.50
2022-11-26T05:11:21.151Z,33.23
2022-11-26T05:13:49.228Z,31.80
2022-11-26T05:16:17.428Z,33.53
2022-11-26T05:18:47.025Z,35.40
2022-11-26T05:21:15.100Z,32.60
2022-11-26T05:23:43.183Z,32.73
2022-11-26T05:26:11.263Z,32.70
2022-11-26T05:28:39.494Z,33.20
2022-11-26T05:31:07.710Z,31.20
2022-11-26T05:33:35.780Z,30.20
2022-11-26T05:36:06.142Z,33.87
2022-11-26T05:38:34.218Z,34.43
2022-11-26T05:41:02.496Z,33.57
2022-11-26T05:43:30.722Z,34.97
2022-11-26T05:46:03.867Z,34.43
2022-11-26T05:48:31.978Z,32.00
2022-11-26T05:51:00.666Z,35.10
2022-11-26T05:53:30.435Z,35.07
2022-11-26T05:55:58.804Z,33.73
2022-11-26T05:58:27.083Z,33.83
2022-11-26T06:00:55.495Z,33.23
2022-11-26T06:03:23.699Z,33.03
2022-11-26T06:05:51.953Z,34.10
2022-11-26T06:08:20.444Z,35.37
2022-11-26T06:10:49.834Z,34.93
2022-11-26T06:13:18.116Z,34.33
2022-11-26T06:15:46.336Z,37.10
2022-11-26T06:18:14.370Z,34.60
2022-11-26T06:20:42.519Z,34.67
2022-11-26T06:23:10.687Z,33.40
2022-11-26T06:25:41.025Z,33.93
2022-11-26T06:28:10.561Z,33.47
2022-11-26T06:30:38.687Z,34.90
2022-11-26T06:33:06.684Z,36.10
2022-11-26T06:35:35.247Z,35.30
2022-11-26T06:38:03.342Z,36.40
2022-11-26T06:40:31.434Z,37.17
2022-11-26T06:42:59.615Z,35.70
2022-11-26T06:45:29.187Z,34.87
2022-11-26T06:47:57.392Z,35.57
2022-11-26T06:50:25.446Z,34.97
2022-11-26T06:52:53.969Z,34.23
2022-11-26T06:55:22.637Z,37.20
2022-11-26T06:57:52.071Z,35.20
2022-11-26T07:00:22.015Z,35.90
2022-11-26T07:02:51.516Z,35.67
2022-11-26T07:05:19.809Z,34.07
2022-11-26T07:07:47.887Z,34.63
2022-11-26T07:10:15.960Z,33.87
2022-11-26T07:12:43.973Z,33.70
2022-11-26T07:15:12.818Z,35.60
2022-11-26T07:17:40.869Z,38.80
2022-11-26T07:20:11.205Z,37.77
2022-11-26T07:22:39.266Z,37.43
2022-11-26T07:25:12.320Z,39.00
2022-11-26T07:27:41.269Z,37.13
2022-11-26T07:30:10.356Z,38.50
2022-11-26T07:32:38.544Z,36.87
2022-11-26T07:35:07.424Z,35.10
2022-11-26T07:37:36.944Z,37.30
2022-11-26T07:40:06.339Z,35.90
2022-11-26T07:42:35.039Z,34.40
2022-11-26T07:45:04.627Z,35.47
2022-11-26T07:47:32.687Z,33.80
2022-11-26T07:50:01.036Z,33.17
2022-11-26T07:52:29.131Z,33.07
2022-11-26T07:54:58.499Z,32.13
2022-11-26T07:57:26.605Z,34.10
2022-11-26T07:59:54.634Z,32.07
2022-11-26T08:02:22.653Z,31.00
2022-11-26T08:04:50.959Z,31.03
2022-11-26T08:07:24.533Z,35.00
2022-11-26T08:10:01.500Z,29.40
2022-11-26T08:12:29.607Z,31.37
2022-11-26T08:14:57.647Z,30.07
2022-11-26T08:17:25.712Z,31.83
2022-11-26T08:19:53.968Z,32.40
2022-11-26T08:22:22.078Z,32.53
2022-11-26T08:24:51.310Z,30.13
2022-11-26T08:27:21.020Z,32.17
2022-11-26T08:29:49.110Z,31.07
2022-11-26T08:32:17.168Z,31.10
2022-11-26T08:34:45.382Z,31.27
2022-11-26T08:37:13.511Z,30.40
2022-11-26T08:39:41.789Z,31.33
2022-11-26T08:42:09.881Z,30.13
2022-11-26T08:47:22.051Z,30.43
2022-11-26T08:49:50.150Z,32.17
2022-11-26T08:52:18.363Z,32.37
2022-11-26T08:54:46.778Z,31.67
2022-11-26T08:57:15.207Z,33.70
2022-11-26T08:59:44.732Z,32.80
2022-11-26T09:02:18.463Z,33.00
2022-11-26T09:04:46.903Z,32.80
2022-11-26T09:07:15.309Z,31.13
2022-11-26T09:09:43.499Z,34.90
2022-11-26T09:12:12.183Z,36.17
2022-11-26T09:14:42.348Z,34.63
2022-11-26T09:17:13.381Z,33.77
2022-11-26T09:19:41.511Z,33.30
2022-11-26T09:22:09.690Z,34.23
2022-11-26T09:24:38.002Z,33.13
2022-11-26T09:27:08.237Z,34.30
2022-11-26T09:29:38.565Z,34.93
2022-11-26T09:32:23.471Z,34.40
2022-11-26T09:34:54.734Z,34.30
2022-11-26T09:37:22.978Z,34.83
2022-11-26T09:39:51.229Z,35.53
2022-11-26T09:42:29.983Z,36.33
2022-11-26T09:45:05.783Z,36.83
2022-11-26T09:47:39.492Z,36.90
2022-11-26T09:50:22.245Z,37.00
2022-11-26T09:52:56.462Z,37.40
2022-11-26T09:55:27.502Z,36.47
2022-11-26T09:58:04.797Z,39.17
2022-11-26T10:00:39.238Z,37.30
2022-11-26T10:03:15.975Z,35.90
2022-11-26T10:05:51.228Z,37.37
2022-11-26T10:08:54.355Z,35.90
2022-11-26T10:11:29.720Z,38.20
2022-11-26T10:14:10.917Z,38.27
2022-11-26T10:16:45.167Z,37.10
2022-11-26T10:19:21.343Z,37.47
2022-11-26T10:21:59.770Z,36.97
2022-11-26T10:24:31.406Z,35.07
2022-11-26T10:27:02.750Z,37.37
2022-11-26T10:29:38.233Z,37.80
2022-11-26T10:32:15.118Z,35.10
2022-11-26T10:34:50.588Z,37.60
2022-11-26T10:37:21.509Z,37.20
2022-11-26T10:40:01.045Z,39.33
2022-11-26T10:42:42.144Z,39.77
2022-11-26T10:45:19.885Z,41.27
2022-11-26T10:47:48.042Z,41.67
2022-11-26T10:50:46.761Z,41.67
2022-11-26T10:53:22.205Z,40.57
2022-11-26T10:55:51.833Z,39.80
2022-11-26T10:58:22.456Z,38.83
2022-11-26T11:00:58.188Z,39.10
2022-11-26T11:03:59.677Z,38.60
2022-11-26T11:06:35.813Z,37.00
2022-11-26T11:09:29.393Z,39.20
2022-11-26T11:12:23.940Z,30.70
2022-11-26T11:14:53.200Z,38.23
2022-11-26T11:17:33.764Z,41.30
2022-11-26T11:20:07.903Z,40.00
2022-11-26T11:22:36.249Z,40.70
2022-11-26T11:25:06.241Z,38.97
2022-11-26T11:27:46.883Z,39.37
2022-11-26T11:30:26.428Z,43.80
2022-11-26T11:32:58.198Z,41.27
2022-11-26T11:35:30.287Z,42.23
2022-11-26T11:37:59.371Z,44.27
2022-11-26T11:40:31.008Z,42.97
2022-11-26T11:43:01.196Z,43.33
2022-11-26T11:45:35.461Z,42.80
2022-11-26T11:48:18.393Z,42.40
2022-11-26T11:50:52.564Z,41.60
2022-11-26T11:53:35.168Z,39.37
2022-11-26T11:56:29.810Z,42.53
2022-11-26T11:59:36.063Z,42.47
2022-11-26T12:02:42.700Z,41.73
2022-11-26T12:05:32.503Z,40.80
2022-11-26T12:08:12.844Z,42.50
2022-11-26T12:10:49.328Z,42.73
2022-11-26T12:13:23.025Z,42.80
2022-11-26T12:15:55.029Z,43.60
2022-11-26T12:18:28.274Z,42.07
2022-11-26T12:21:00.150Z,44.57
2022-11-26T12:23:34.022Z,42.90
2022-11-26T12:26:07.585Z,41.47
2022-11-26T12:28:43.211Z,42.57
2022-11-26T12:31:18.312Z,41.13
2022-11-26T12:33:51.123Z,40.03
2022-11-26T12:36:24.196Z,38.83
2022-11-26T12:38:55.113Z,40.50
2022-11-26T12:41:28.735Z,39.20
2022-11-26T12:44:05.628Z,39.93
2022-11-26T12:46:41.024Z,39.07
2022-11-26T12:49:18.052Z,39.70
2022-11-26T12:51:51.088Z,38.43
2022-11-26T12:54:24.626Z,40.60
2022-11-26T12:57:00.611Z,40.37
2022-11-26T12:59:34.439Z,40.50
2022-11-26T13:02:15.062Z,39.40
2022-11-26T13:04:43.177Z,39.40
2022-11-26T13:07:21.841Z,38.20
2022-11-26T13:10:03.620Z,39.20
2022-11-26T13:12:46.727Z,39.60
2022-11-26T13:15:23.926Z,40.33
2022-11-26T13:17:52.840Z,38.47
2022-11-26T13:20:42.591Z,39.37
2022-11-26T13:23:39.236Z,39.33
2022-11-26T13:26:19.044Z,37.67
2022-11-26T13:29:04.902Z,38.87
2022-11-26T13:31:46.616Z,38.90
2022-11-26T13:34:29.886Z,35.47
2022-11-26T13:37:25.180Z,36.40
2022-11-26T13:40:20.873Z,37.10
2022-11-26T13:43:04.807Z,36.00
2022-11-26T13:45:59.017Z,36.03
2022-11-26T13:48:38.324Z,36.37
2022-11-26T13:51:10.700Z,38.10
2022-11-26T13:53:44.622Z,38.33
2022-11-26T13:56:16.099Z,37.17
2022-11-26T13:58:48.779Z,36.40
2022-11-26T14:01:32.982Z,37.40
2022-11-26T14:04:03.810Z,35.50
2022-11-26T14:06:32.200Z,35.47
2022-11-26T14:09:00.469Z,34.93
2022-11-26T14:11:57.841Z,39.37
2022-11-26T14:14:37.125Z,36.27
2022-11-26T14:17:34.946Z,35.03
2022-11-26T14:20:12.082Z,36.03
2022-11-26T14:22:40.363Z,36.43
2022-11-26T14:25:14.210Z,35.00
2022-11-26T14:27:50.020Z,35.17
2022-11-26T14:30:24.876Z,37.40
2022-11-26T14:32:59.989Z,36.67
2022-11-26T14:35:34.443Z,37.37
2022-11-26T14:38:04.771Z,37.90
2022-11-26T14:40:34.651Z,40.07
2022-11-26T14:43:23.927Z,36.70
2022-11-26T14:46:04.271Z,37.77
2022-11-26T14:48:34.499Z,38.70
2022-11-26T14:51:08.177Z,38.50
2022-11-26T14:53:37.210Z,37.90
2022-11-26T14:56:06.677Z,37.77
2022-11-26T14:58:38.834Z,39.07
2022-11-26T15:01:09.359Z,40.30
2022-11-26T15:03:37.654Z,40.00
2022-11-26T15:06:07.771Z,40.20
2022-11-26T15:08:35.938Z,40.70
2022-11-26T15:11:07.657Z,42.60
2022-11-26T15:13:39.587Z,42.53
2022-11-26T15:16:27.083Z,42.37
2022-11-26T15:18:56.591Z,42.73
2022-11-26T15:21:28.249Z,45.27
2022-11-26T15:23:59.798Z,40.77
2022-11-26T15:26:33.335Z,46.37
2022-11-26T15:29:01.630Z,45.87
2022-11-26T15:31:40.903Z,43.20
2022-11-26T15:34:13.817Z,43.47
2022-11-26T15:36:43.324Z,43.17
2022-11-26T15:39:26.035Z,42.80
2022-11-26T15:41:56.219Z,43.17
2022-11-26T15:44:26.443Z,43.33
2022-11-26T15:46:57.053Z,42.57
2022-11-26T15:49:29.150Z,44.40
2022-11-26T15:52:03.448Z,43.40
2022-11-26T15:54:49.635Z,42.70
2022-11-26T15:57:27.148Z,44.00
2022-11-26T15:59:58.506Z,44.37
2022-11-26T16:02:28.973Z,43.15
2022-11-26T16:04:58.548Z,41.00
2022-11-26T16:07:30.171Z,42.47
2022-11-26T16:10:22.321Z,43.47
2022-11-26T16:13:17.030Z,42.93
2022-11-26T16:15:50.591Z,45.53
2022-11-26T16:18:26.505Z,44.10
2022-11-26T16:21:04.391Z,47.07
2022-11-26T16:23:34.370Z,42.40
2022-11-26T16:26:11.551Z,45.90
2022-11-26T16:28:40.053Z,46.80
2022-11-26T16:31:08.519Z,47.60
2022-11-26T16:33:36.673Z,46.00
2022-11-26T16:36:19.291Z,48.30
2022-11-26T16:38:49.364Z,44.00
2022-11-26T16:41:19.892Z,44.37
2022-11-26T16:43:48.677Z,48.00
2022-11-26T16:46:18.931Z,43.20
2022-11-26T16:48:47.723Z,44.57
2022-11-26T16:51:15.902Z,45.63
2022-11-26T16:53:44.140Z,43.27
2022-11-26T16:56:21.023Z,47.00
2022-11-26T16:58:50.022Z,45.47
2022-11-26T17:01:18.222Z,47.53
2022-11-26T17:03:46.413Z,52.27
2022-11-26T17:06:17.174Z,47.30
2022-11-26T17:08:49.742Z,48.33
2022-11-26T17:11:19.727Z,50.80
2022-11-26T17:13:47.799Z,51.20
2022-11-26T17:16:17.874Z,49.77
2022-11-26T17:18:45.994Z,48.03
2022-11-26T17:21:14.866Z,48.10
2022-11-26T17:23:43.039Z,45.73
2022-11-26T17:26:24.077Z,50.60
2022-11-26T17:28:52.627Z,49.30
2022-11-26T17:31:20.778Z,47.33
2022-11-26T17:33:50.659Z,48.77
2022-11-26T17:36:20.826Z,48.90
2022-11-26T17:38:49.294Z,46.30
2022-11-26T17:41:17.996Z,49.27
2022-11-26T17:43:47.502Z,47.87
2022-11-26T17:46:18.156Z,51.90
2022-11-26T17:48:46.806Z,47.90
2022-11-26T17:51:15.954Z,48.37
2022-11-26T17:53:45.031Z,46.73
2022-11-26T17:56:18.354Z,46.50
2022-11-26T17:58:47.993Z,48.50
2022-11-26T18:01:17.009Z,46.50
2022-11-26T18:03:45.676Z,46.97
2022-11-26T18:06:16.930Z,45.00
2022-11-26T18:08:45.849Z,47.80
2022-11-26T18:11:15.729Z,44.93
2022-11-26T18:13:43.962Z,46.60
2022-11-26T18:16:13.569Z,44.80
2022-11-26T18:18:41.714Z,51.33
2022-11-26T18:21:09.941Z,46.47
2022-11-26T18:23:38.109Z,52.47
2022-11-26T18:26:07.685Z,50.60
2022-11-26T18:28:35.851Z,48.10
2022-11-26T18:31:04.084Z,49.70
2022-11-26T18:33:33.802Z,46.30
2022-11-26T18:36:02.066Z,45.13
2022-11-26T18:38:32.972Z,44.90
2022-11-26T18:41:03.509Z,46.63
2022-11-26T18:43:32.529Z,42.60
2022-11-26T18:46:04.050Z,45.07
2022-11-26T18:48:35.277Z,44.00
2022-11-26T18:51:03.644Z,41.60
2022-11-26T18:53:32.291Z,44.87
2022-11-26T18:56:00.426Z,41.90
2022-11-26T18:58:28.624Z,44.20
2022-11-26T19:00:58.472Z,52.00
2022-11-26T19:03:27.385Z,54.73
2022-11-26T19:05:57.050Z,43.23
2022-11-26T19:08:25.295Z,45.30
2022-11-26T19:10:53.360Z,40.00
2022-11-26T19:13:21.681Z,38.40
2022-11-26T19:15:50.236Z,37.50
2022-11-26T19:18:18.383Z,36.33
2022-11-26T19:20:50.746Z,36.67
2022-11-26T19:23:24.255Z,37.27
2022-11-26T19:25:52.323Z,35.33
2022-11-26T19:28:20.327Z,33.23
2022-11-26T19:30:59.115Z,34.23
2022-11-26T19:33:27.237Z,34.30
2022-11-26T19:35:55.516Z,31.40
2022-11-26T19:38:26.707Z,32.57
2022-11-26T19:40:57.271Z,31.00
2022-11-26T19:43:26.239Z,31.83
2022-11-26T19:46:01.683Z,31.20
2022-11-26T19:48:29.786Z,32.10
2022-11-26T19:50:57.860Z,33.17
2022-11-26T19:53:27.317Z,31.87
2022-11-26T19:55:59.589Z,30.50
2022-11-26T19:58:28.219Z,31.40
2022-11-26T20:00:56.367Z,29.37
2022-11-26T20:03:25.705Z,33.97
2022-11-26T20:05:53.904Z,31.63
2022-11-26T20:08:22.305Z,31.17
2022-11-26T20:10:51.767Z,30.77
2022-11-26T20:13:19.864Z,32.60
2022-11-26T20:15:48.995Z,31.47
2022-11-26T20:18:17.069Z,31.07
2022-11-26T20:20:45.219Z,29.93
2022-11-26T20:23:13.742Z,28.97
2022-11-26T20:25:41.827Z,29.60
2022-11-26T20:28:11.484Z,30.27
2022-11-26T20:30:39.590Z,23.60
2022-11-26T20:33:07.729Z,29.30
2022-11-26T20:35:36.487Z,30.10
2022-11-26T20:38:04.703Z,26.27
2022-11-26T20:40:32.907Z,28.57
2022-11-26T20:43:01.412Z,28.10
2022-11-26T20:45:30.889Z,27.57
2022-11-26T20:47:58.945Z,29.53
2022-11-26T20:50:27.125Z,29.27
2022-11-26T20:52:55.156Z,27.00
2022-11-26T20:55:25.089Z,26.17
2022-11-26T20:57:53.897Z,25.47
2022-11-26T21:00:27.189Z,26.57
2022-11-26T21:02:57.075Z,23.20
2022-11-26T21:05:25.656Z,24.43
2022-11-26T21:07:53.827Z,22.60
2022-11-26T21:10:25.118Z,22.60
2022-11-26T21:12:53.228Z,23.03
2022-11-26T21:15:22.491Z,22.77
2022-11-26T21:17:50.641Z,22.63
2022-11-26T21:20:20.741Z,24.73
2022-11-26T21:22:49.035Z,24.90
2022-11-26T21:25:17.331Z,23.27
2022-11-26T21:27:45.555Z,23.87
2022-11-26T21:30:14.765Z,24.43
2022-11-26T21:32:43.139Z,22.60
2022-11-26T21:35:11.433Z,21.40
2022-11-26T21:37:40.951Z,19.53
2022-11-26T21:40:10.575Z,19.77
2022-11-26T21:42:38.716Z,19.97
2022-11-26T21:45:08.484Z,19.23
2022-11-26T21:47:36.913Z,18.90
2022-11-26T21:50:05.794Z,19.50
2022-11-26T21:52:33.883Z,19.30
2022-11-26T21:55:03.928Z,20.47
2022-11-26T21:57:32.547Z,17.00
2022-11-26T22:00:00.658Z,17.97
2022-11-26T22:02:28.836Z,16.43
2022-11-26T22:04:56.894Z,15.90
2022-11-26T22:07:25.104Z,17.90
2022-11-26T22:09:53.502Z,16.90
2022-11-26T22:12:23.015Z,16.50
2022-11-26T22:14:51.101Z,17.33
2022-11-26T22:17:19.191Z,17.73
2022-11-26T22:19:47.743Z,15.80
2022-11-26T22:22:15.792Z,16.00
2022-11-26T22:24:43.836Z,17.97
2022-11-26T22:27:12.012Z,15.27
2022-11-26T22:29:41.843Z,14.70
2022-11-26T22:32:10.046Z,15.37
2022-11-26T22:34:38.089Z,16.07
2022-11-26T22:37:06.306Z,17.20
2022-11-26T22:39:34.366Z,15.57
2022-11-26T22:42:02.792Z,16.77
2022-11-26T22:44:30.892Z,17.57
2022-11-26T22:47:00.376Z,17.87
2022-11-26T22:49:28.695Z,16.70
2022-11-26T22:51:56.743Z,15.90
2022-11-26T22:54:24.992Z,16.20
2022-11-26T22:56:53.055Z,16.43
2022-11-26T22:59:21.167Z,15.90
2022-11-26T23:01:49.270Z,15.27
2022-11-26T23:04:18.743Z,17.80
2022-11-26T23:06:46.919Z,15.63
2022-11-26T23:09:15.223Z,14.20
2022-11-26T23:11:44.143Z,15.73
2022-11-26T23:14:12.853Z,15.60
2022-11-26T23:16:42.978Z,16.00
2022-11-26T23:19:14.035Z,17.17
2022-11-26T23:21:44.688Z,15.63
2022-11-26T23:24:13.471Z,15.17
2022-11-26T23:26:42.059Z,16.10
2022-11-26T23:29:11.053Z,16.53
2022-11-26T23:31:41.224Z,15.80
2022-11-26T23:34:11.080Z,15.93
2022-11-26T23:36:39.650Z,16.70
2022-11-26T23:39:12.132Z,15.40
2022-11-26T23:41:40.157Z,16.67
2022-11-26T23:44:08.204Z,17.07
2022-11-26T23:46:36.626Z,16.20
2022-11-26T23:49:06.935Z,16.70
2022-11-26T23:51:35.186Z,16.50
2022-11-26T23:54:03.465Z,16.30
2022-11-26T23:56:35.001Z,16.40
2022-11-26T23:59:05.181Z,15.00
